Time;durP1;ratioP1;P1;durP2;ratioP2;P2;SDS_P1;SDS_P2;PMS_P1;PMS_P2;Temp;Humidity;BMP_temperature;BMP_pressure;BME280_temperature;BME280_humidity;BME280_pressure;Samples;Min_cycle;Max_cycle;Signal;HPM_P1;HPM_P2
2024/03/01 00:01:09;;;;;;;143.40;81.30;;;;;;;8.31;100.00;99722.16;183066;1235;45977;-84
2024/03/01 00:05:22;;;;;;;141.10;80.60;;;;;;;8.38;100.00;99714.02;183365;1235;46008;-83
2024/03/01 00:09:24;;;;;;;126.90;78.20;;;;;;;8.42;100.00;99711.15;182675;1235;46075;-82
2024/03/01 00:13:26;;;;;;;145.10;86.00;;;;;;;8.46;100.00;99712.81;182752;1238;46046;-84
2024/03/01 00:17:28;;;;;;;149.80;86.40;;;;;;;8.51;100.00;99710.53;182426;1238;58152;-83
2024/03/01 00:21:29;;;;;;;134.90;86.60;;;;;;;8.57;100.00;99704.75;182916;1238;45986;-83
2024/03/01 00:25:32;;;;;;;143.40;91.20;;;;;;;8.63;100.00;99699.07;182757;1234;45989;-84
2024/03/01 00:29:34;;;;;;;159.70;92.70;;;;;;;8.68;100.00;99696.39;183386;1238;46096;-84
2024/03/01 00:33:36;;;;;;;148.50;87.40;;;;;;;8.73;100.00;99693.73;182671;1235;46082;-82
2024/03/01 00:37:37;;;;;;;126.60;83.00;;;;;;;8.75;100.00;99689.81;183737;1237;58112;-84
2024/03/01 00:41:39;;;;;;;157.70;92.80;;;;;;;8.76;100.00;99688.83;182353;1235;46131;-83
2024/03/01 00:45:41;;;;;;;141.90;85.50;;;;;;;8.79;100.00;99685.23;183103;1235;46116;-83
2024/03/01 00:49:42;;;;;;;164.70;95.70;;;;;;;8.75;100.00;99687.32;182937;1235;46001;-81
2024/03/01 00:53:44;;;;;;;142.40;84.90;;;;;;;8.75;100.00;99681.38;183144;1236;46070;-81
2024/03/01 00:57:46;;;;;;;151.50;86.40;;;;;;;8.77;100.00;99678.88;183263;1236;59199;-81
2024/03/01 01:01:48;;;;;;;164.90;89.40;;;;;;;8.79;100.00;99674.95;182869;1235;46028;-83
2024/03/01 01:05:49;;;;;;;152.70;85.70;;;;;;;8.80;100.00;99673.31;182409;1238;45967;-83
2024/03/01 01:09:51;;;;;;;150.30;87.00;;;;;;;8.83;100.00;99669.47;183171;1235;46031;-83
2024/03/01 01:13:56;;;;;;;149.20;89.40;;;;;;;8.83;100.00;99664.35;182251;1235;45969;-82
2024/03/01 01:17:57;;;;;;;125.60;80.90;;;;;;;8.82;100.00;99664.59;182236;1234;59878;-82
2024/03/01 01:21:59;;;;;;;129.10;82.30;;;;;;;8.82;100.00;99660.90;182339;1235;46107;-82
2024/03/01 01:26:01;;;;;;;143.90;87.20;;;;;;;8.85;100.00;99661.19;182103;1238;44361;-82
2024/03/01 01:30:03;;;;;;;139.20;84.40;;;;;;;8.86;100.00;99651.92;182711;1238;46184;-82
2024/03/01 01:34:05;;;;;;;148.10;83.90;;;;;;;8.85;100.00;99643.71;182345;1236;45976;-83
2024/03/01 01:38:07;;;;;;;136.60;85.50;;;;;;;8.87;100.00;99636.66;183688;1238;59233;-82
2024/03/01 01:42:09;;;;;;;147.60;87.50;;;;;;;8.87;100.00;99633.84;182950;1236;46071;-83
2024/03/01 01:46:14;;;;;;;156.50;88.10;;;;;;;8.87;100.00;99628.38;182725;1234;46087;-85
2024/03/01 01:50:17;;;;;;;142.90;80.60;;;;;;;8.83;100.00;99622.70;182611;1235;46120;-82
2024/03/01 01:54:19;;;;;;;156.80;90.20;;;;;;;8.83;100.00;99616.80;182363;1238;46026;-81
2024/03/01 01:58:21;;;;;;;149.30;86.90;;;;;;;8.83;100.00;99612.62;181520;1238;57888;-84
2024/03/01 02:02:23;;;;;;;147.70;87.90;;;;;;;8.81;100.00;99605.69;182135;1235;46139;-81
2024/03/01 02:06:25;;;;;;;133.50;81.00;;;;;;;8.83;100.00;99594.54;182357;1235;46169;-84
2024/03/01 02:10:27;;;;;;;132.20;82.80;;;;;;;8.83;100.00;99593.84;182333;1234;46101;-86
2024/03/01 02:14:28;;;;;;;133.60;82.50;;;;;;;8.83;100.00;99594.36;182205;1237;46132;-82
2024/03/01 02:18:33;;;;;;;137.30;83.20;;;;;;;8.84;100.00;99590.27;182856;1235;57463;-82
2024/03/01 02:22:38;;;;;;;125.30;78.40;;;;;;;8.83;100.00;99587.63;183069;1238;45998;-82
2024/03/01 02:26:40;;;;;;;124.30;78.90;;;;;;;8.82;100.00;99580.70;183473;1235;45928;-83
2024/03/01 02:30:44;;;;;;;127.00;76.60;;;;;;;8.84;100.00;99578.05;182604;1235;45984;-83
2024/03/01 02:34:46;;;;;;;120.90;74.00;;;;;;;8.81;100.00;99571.21;183411;1238;45937;-81
2024/03/01 02:38:48;;;;;;;120.20;75.50;;;;;;;8.79;100.00;99566.60;184397;1235;57901;-82
2024/03/01 02:42:50;;;;;;;136.50;82.20;;;;;;;8.77;100.00;99563.29;182703;1234;45972;-80
2024/03/01 02:46:52;;;;;;;115.40;71.50;;;;;;;8.72;100.00;99551.98;182118;1235;46430;-80
2024/03/01 02:50:53;;;;;;;116.90;73.30;;;;;;;8.68;100.00;99546.98;182039;1235;46093;-81
2024/03/01 02:54:55;;;;;;;128.80;77.50;;;;;;;8.63;100.00;99549.06;182442;1238;46141;-81
2024/03/01 02:58:57;;;;;;;117.90;72.90;;;;;;;8.57;100.00;99538.77;182220;1236;59624;-83
2024/03/01 03:02:58;;;;;;;120.00;73.60;;;;;;;8.53;100.00;99535.59;183007;1236;44465;-84
2024/03/01 03:07:00;;;;;;;135.10;80.80;;;;;;;8.55;100.00;99528.88;182830;1235;46053;-83
2024/03/01 03:11:11;;;;;;;120.20;74.70;;;;;;;8.60;100.00;99522.93;183066;1235;44673;-82
2024/03/01 03:15:13;;;;;;;126.30;81.80;;;;;;;8.64;100.00;99520.86;183167;1234;46168;-82
2024/03/01 03:19:15;;;;;;;129.40;78.30;;;;;;;8.65;100.00;99520.61;182431;1239;59748;-84
2024/03/01 03:23:17;;;;;;;126.80;77.60;;;;;;;8.68;100.00;99526.85;182220;1235;45999;-85
2024/03/01 03:27:19;;;;;;;111.30;73.50;;;;;;;8.71;100.00;99525.55;183033;1235;44414;-82
2024/03/01 03:31:21;;;;;;;120.50;73.60;;;;;;;8.73;100.00;99521.30;182253;1238;46584;-84
2024/03/01 03:35:23;;;;;;;126.20;78.20;;;;;;;8.71;100.00;99520.47;182162;1235;45841;-83
2024/03/01 03:39:25;;;;;;;120.20;75.10;;;;;;;8.68;100.00;99516.04;181933;1236;59351;-84
2024/03/01 03:43:26;;;;;;;118.00;76.10;;;;;;;8.69;100.00;99516.67;182158;1237;46539;-81
2024/03/01 03:47:28;;;;;;;117.70;77.10;;;;;;;8.69;100.00;99517.20;182098;1237;45996;-82
2024/03/01 03:51:30;;;;;;;120.20;78.30;;;;;;;8.70;100.00;99523.54;182792;1235;45954;-79
2024/03/01 03:55:32;;;;;;;118.00;76.90;;;;;;;8.73;100.00;99518.86;182845;1234;45924;-81
2024/03/01 03:59:34;;;;;;;112.30;73.30;;;;;;;8.75;100.00;99524.77;182506;1234;59687;-81
2024/03/01 04:03:36;;;;;;;115.20;75.30;;;;;;;8.74;100.00;99524.26;182117;1237;45992;-78
2024/03/01 04:07:38;;;;;;;108.30;75.70;;;;;;;8.76;100.00;99523.75;182085;1235;45970;-82
2024/03/01 04:11:40;;;;;;;116.50;73.60;;;;;;;8.72;100.00;99527.23;182382;1235;46300;-83
2024/03/01 04:15:43;;;;;;;111.90;73.10;;;;;;;8.69;100.00;99534.02;182699;1238;46083;-84
2024/03/01 04:19:45;;;;;;;106.50;68.70;;;;;;;8.68;100.00;99532.03;183196;1236;59845;-85
2024/03/01 04:23:48;;;;;;;105.40;68.60;;;;;;;8.63;100.00;99532.10;184207;1234;45977;-86
2024/03/01 04:27:50;;;;;;;107.80;65.60;;;;;;;8.52;100.00;99532.83;182607;1235;46094;-87
2024/03/01 04:31:51;;;;;;;98.80;63.50;;;;;;;8.49;100.00;99526.41;183354;1235;45894;-86
2024/03/01 04:35:53;;;;;;;96.90;58.80;;;;;;;8.42;100.00;99522.34;185024;1235;44113;-86
2024/03/01 04:39:55;;;;;;;100.80;66.80;;;;;;;8.20;100.00;99525.05;183880;1239;59111;-83
2024/03/01 04:43:57;;;;;;;95.60;62.50;;;;;;;8.08;100.00;99524.96;182499;1237;46091;-88
2024/03/01 04:47:59;;;;;;;117.70;66.20;;;;;;;8.09;100.00;99522.08;183517;1234;46098;-86
2024/03/01 04:52:01;;;;;;;116.30;64.20;;;;;;;8.12;100.00;99523.59;182591;1236;45957;-88
2024/03/01 04:56:03;;;;;;;99.30;60.70;;;;;;;8.13;100.00;99522.80;182869;1234;44528;-84
2024/03/01 05:00:11;;;;;;;80.00;51.70;;;;;;;8.09;100.00;99517.48;183098;1235;59442;-85
2024/03/01 05:04:13;;;;;;;100.90;60.60;;;;;;;7.96;100.00;99520.11;182490;1238;46098;-86
2024/03/01 05:08:19;;;;;;;98.00;64.20;;;;;;;7.83;100.00;99523.80;183016;1238;45987;-88
2024/03/01 05:12:22;;;;;;;107.10;65.90;;;;;;;7.75;100.00;99525.59;182642;1234;46190;-85
2024/03/01 05:16:24;;;;;;;94.50;62.20;;;;;;;7.67;100.00;99519.55;183554;1238;44866;-88
2024/03/01 05:20:25;;;;;;;96.60;60.90;;;;;;;7.68;100.00;99512.34;182601;1235;59449;-88
2024/03/01 05:24:27;;;;;;;105.80;63.80;;;;;;;7.66;100.00;99507.27;182922;1237;46092;-87
2024/03/01 05:28:29;;;;;;;107.50;66.60;;;;;;;7.55;100.00;99508.52;182136;1234;45903;-86
2024/03/01 05:32:31;;;;;;;96.40;63.70;;;;;;;7.33;100.00;99509.92;183308;1235;45415;-86
2024/03/01 05:36:33;;;;;;;85.40;58.60;;;;;;;7.32;100.00;99514.18;184337;1235;45967;-84
2024/03/01 05:40:37;;;;;;;98.50;59.80;;;;;;;7.27;100.00;99516.36;183326;1236;59527;-85
2024/03/01 05:44:53;;;;;;;99.10;60.20;;;;;;;7.23;100.00;99520.88;183318;1235;46075;-87
2024/03/01 05:48:55;;;;;;;94.00;61.10;;;;;;;7.28;100.00;99519.13;183060;1235;46077;-87
2024/03/01 05:52:58;;;;;;;97.80;65.90;;;;;;;7.31;100.00;99523.50;183543;1235;46052;-85
2024/03/01 05:57:00;;;;;;;103.50;61.30;;;;;;;7.38;100.00;99520.11;184146;1234;46422;-86
2024/03/01 06:01:04;;;;;;;91.50;60.10;;;;;;;7.46;100.00;99524.05;183380;1235;57032;-87
2024/03/01 06:05:06;;;;;;;91.90;60.10;;;;;;;7.48;100.00;99521.21;182991;1236;45916;-87
2024/03/01 06:09:09;;;;;;;102.70;58.10;;;;;;;7.61;100.00;99520.57;182744;1236;44103;-86
2024/03/01 06:13:10;;;;;;;101.00;62.00;;;;;;;7.68;100.00;99523.13;184377;1236;45974;-88
2024/03/01 06:17:12;;;;;;;99.50;63.10;;;;;;;7.80;100.00;99520.38;183512;1238;45993;-86
2024/03/01 06:21:21;;;;;;;93.30;59.00;;;;;;;7.93;100.00;99523.23;182803;1234;57896;-87
2024/03/01 06:25:23;;;;;;;94.20;59.20;;;;;;;8.04;100.00;99524.63;182829;1235;46024;-86
2024/03/01 06:29:25;;;;;;;97.30;61.90;;;;;;;8.19;100.00;99528.69;182620;1234;46179;-84
2024/03/01 06:33:26;;;;;;;86.30;55.10;;;;;;;8.36;100.00;99534.13;182341;1238;46095;-86
2024/03/01 06:37:28;;;;;;;81.50;55.50;;;;;;;8.51;100.00;99533.92;183236;1236;45143;-86
2024/03/01 06:41:30;;;;;;;85.20;52.90;;;;;;;8.70;100.00;99533.92;181978;1235;59196;-88
2024/03/01 06:45:32;;;;;;;76.70;54.50;;;;;;;8.82;100.00;99533.42;182066;1238;46057;-87
2024/03/01 06:49:34;;;;;;;84.90;51.90;;;;;;;8.98;100.00;99533.15;183310;1238;46067;-86
2024/03/01 06:53:36;;;;;;;76.60;52.40;;;;;;;9.16;100.00;99531.41;182659;1238;46177;-87
2024/03/01 06:57:38;;;;;;;70.80;46.70;;;;;;;9.37;100.00;99526.42;182495;1234;45971;-87
2024/03/01 07:01:40;;;;;;;75.00;50.50;;;;;;;9.54;100.00;99525.96;184400;1238;57772;-83
2024/03/01 07:05:42;;;;;;;71.20;47.70;;;;;;;9.68;100.00;99531.11;183072;1235;46002;-88
2024/03/01 07:09:46;;;;;;;60.10;41.40;;;;;;;9.83;100.00;99530.96;183596;1238;46000;-87
2024/03/01 07:13:48;;;;;;;73.10;45.90;;;;;;;10.01;100.00;99534.65;182611;1234;46090;-87
2024/03/01 07:17:52;;;;;;;75.20;46.30;;;;;;;10.11;100.00;99537.84;183212;1235;43970;-86
2024/03/01 07:21:54;;;;;;;79.20;47.70;;;;;;;10.07;100.00;99536.75;182893;1238;59223;-86
2024/03/01 07:25:56;;;;;;;67.90;44.10;;;;;;;9.98;100.00;99532.42;183362;1235;46032;-85
2024/03/01 07:29:57;;;;;;;75.10;48.20;;;;;;;9.86;100.00;99531.61;183678;1235;46197;-85
2024/03/01 07:33:59;;;;;;;69.50;45.40;;;;;;;9.75;100.00;99535.93;183004;1236;45860;-83
2024/03/01 07:38:01;;;;;;;77.30;47.60;;;;;;;9.70;100.00;99535.67;182535;1235;45936;-83
2024/03/01 07:42:03;;;;;;;69.00;49.50;;;;;;;9.60;100.00;99534.08;183189;1236;57898;-83
2024/03/01 07:46:05;;;;;;;65.90;42.10;;;;;;;9.48;100.00;99532.56;183403;1238;45957;-81
2024/03/01 07:50:07;;;;;;;69.80;45.40;;;;;;;9.32;100.00;99531.80;183845;1235;46123;-83
2024/03/01 07:54:09;;;;;;;79.60;49.50;;;;;;;9.19;100.00;99518.27;183891;1234;45841;-83
2024/03/01 07:58:11;;;;;;;78.90;55.00;;;;;;;9.02;100.00;99520.40;183842;1234;46167;-82
2024/03/01 08:02:12;;;;;;;76.60;48.10;;;;;;;8.99;100.00;99517.52;184043;1238;59861;-82
2024/03/01 08:06:14;;;;;;;75.70;49.90;;;;;;;9.06;100.00;99518.70;182996;1235;45999;-84
2024/03/01 08:10:16;;;;;;;86.10;59.30;;;;;;;9.08;100.00;99528.60;184473;1234;43933;-83
2024/03/01 08:14:25;;;;;;;75.80;48.90;;;;;;;9.24;100.00;99527.70;183294;1239;46603;-83
2024/03/01 08:18:27;;;;;;;79.80;57.70;;;;;;;9.39;100.00;99524.77;183662;1237;46099;-82
2024/03/01 08:22:29;;;;;;;83.70;57.80;;;;;;;9.61;100.00;99520.58;181864;1235;58405;-83
2024/03/01 08:26:31;;;;;;;90.60;56.90;;;;;;;9.85;100.00;99523.34;183803;1234;46022;-83
2024/03/01 08:30:46;;;;;;;73.80;50.60;;;;;;;10.09;100.00;99517.46;184360;1235;45852;-81
2024/03/01 08:34:55;;;;;;;75.70;50.30;;;;;;;10.33;100.00;99513.98;184747;1239;43961;-83
2024/03/01 08:39:15;;;;;;;78.70;48.50;;;;;;;10.49;100.00;99515.24;184135;1235;46060;-82
2024/03/01 08:43:17;;;;;;;73.80;49.70;;;;;;;10.66;100.00;99516.31;184446;1238;57867;-82
2024/03/01 08:47:25;;;;;;;72.80;49.50;;;;;;;10.82;100.00;99513.60;183283;1238;46076;-83
2024/03/01 08:51:27;;;;;;;76.80;50.60;;;;;;;10.98;100.00;99509.58;184199;1235;45983;-83
2024/03/01 08:55:29;;;;;;;77.40;57.00;;;;;;;11.13;100.00;99513.11;183094;1235;45909;-85
2024/03/01 08:59:45;;;;;;;76.40;50.20;;;;;;;11.25;100.00;99506.46;184098;1235;45954;-84
2024/03/01 09:03:48;;;;;;;79.60;57.70;;;;;;;11.38;100.00;99505.73;182646;1235;57846;-84
2024/03/01 09:07:50;;;;;;;77.50;51.50;;;;;;;11.43;100.00;99502.96;183035;1235;46010;-85
2024/03/01 09:11:53;;;;;;;79.50;55.90;;;;;;;11.38;100.00;99500.23;183804;1237;45957;-85
2024/03/01 09:15:57;;;;;;;74.10;52.80;;;;;;;11.36;100.00;99498.34;184662;1235;44035;-84
2024/03/01 09:19:59;;;;;;;97.10;69.20;;;;;;;11.36;100.00;99497.75;183688;1239;46739;-83
2024/03/01 09:24:02;;;;;;;69.20;47.10;;;;;;;11.36;100.00;99496.73;183704;1236;59242;-84
2024/03/01 09:28:06;;;;;;;73.90;48.20;;;;;;;11.21;100.00;99506.32;183354;1237;46194;-86
2024/03/01 09:32:09;;;;;;;72.20;47.10;;;;;;;11.11;100.00;99503.54;182993;1237;46058;-85
2024/03/01 09:36:18;;;;;;;69.00;50.00;;;;;;;11.17;100.00;99505.15;184278;1236;46108;-85
2024/03/01 09:40:30;;;;;;;68.90;48.80;;;;;;;11.33;100.00;99501.44;183275;1237;46125;-85
2024/03/01 09:45:01;;;;;;;63.00;45.60;;;;;;;11.51;100.00;99497.88;182668;1238;59402;-86
2024/03/01 09:49:09;;;;;;;153.60;95.30;;;;;;;11.52;100.00;99496.41;182711;1236;45977;-83
2024/03/01 09:53:32;;;;;;;83.40;57.10;;;;;;;11.67;100.00;99490.52;183104;1238;46053;-84
2024/03/01 09:57:48;;;;;;;73.10;51.80;;;;;;;11.64;100.00;99498.42;183615;1239;45983;-84
2024/03/01 10:02:03;;;;;;;72.00;50.60;;;;;;;11.68;100.00;99500.39;183190;1235;46018;-83
2024/03/01 10:06:08;;;;;;;80.40;58.10;;;;;;;11.78;100.00;99498.68;182913;1238;59282;-85
2024/03/01 10:10:32;;;;;;;;;;;;;;;11.97;100.00;99506.96;184414;1238;46049;-85
2024/03/01 10:14:47;;;;;;;81.70;50.00;;;;;;;12.16;100.00;99502.18;184234;1236;43702;-86
2024/03/01 10:19:10;;;;;;;62.40;43.80;;;;;;;12.34;100.00;99504.62;184117;1235;46068;-85
2024/03/01 10:23:18;;;;;;;69.70;45.00;;;;;;;12.33;100.00;99505.07;182865;1235;46084;-83
2024/03/01 10:27:36;;;;;;;70.80;48.50;;;;;;;12.30;100.00;99504.02;183115;1234;59722;-83
2024/03/01 10:31:45;;;;;;;72.60;52.50;;;;;;;12.48;100.00;99508.77;182648;1236;46012;-84
2024/03/01 10:36:02;;;;;;;64.70;45.70;;;;;;;12.68;100.00;99501.38;183852;1234;45864;-85
2024/03/01 10:40:17;;;;;;;67.90;45.20;;;;;;;12.80;100.00;99501.21;183252;1238;46095;-85
2024/03/01 10:44:32;;;;;;;74.50;47.70;;;;;;;12.76;100.00;99498.86;182647;1236;46017;-83
2024/03/01 10:48:58;;;;;;;100.50;65.60;;;;;;;12.83;100.00;99500.89;184195;1236;58154;-84
2024/03/01 10:53:06;;;;;;;92.30;59.50;;;;;;;12.96;100.00;99499.94;182944;1238;44177;-85
2024/03/01 10:57:11;;;;;;;125.30;73.60;;;;;;;13.04;100.00;99506.21;183228;1238;46108;-84
2024/03/01 11:01:37;;;;;;;85.00;53.50;;;;;;;13.08;100.00;99501.58;183974;1235;46112;-85
2024/03/01 11:05:45;;;;;;;60.10;40.00;;;;;;;13.11;100.00;99501.96;183279;1238;46117;-83
2024/03/01 11:09:50;;;;;;;56.90;38.20;;;;;;;13.09;100.00;99491.14;185215;1234;58073;-85
2024/03/01 11:13:56;;;;;;;54.40;39.60;;;;;;;13.01;100.00;99479.71;184569;1235;45867;-86
2024/03/01 11:18:02;;;;;;;57.10;38.30;;;;;;;13.01;100.00;99481.07;183456;1235;44424;-85
2024/03/01 11:22:24;;;;;;;57.90;38.90;;;;;;;13.07;100.00;99480.30;183246;1237;45981;-85
2024/03/01 11:26:49;;;;;;;47.30;36.60;;;;;;;13.17;100.00;99473.74;183120;1238;225492;-85
2024/03/01 11:31:07;;;;;;;58.40;37.90;;;;;;;13.28;100.00;99464.59;183674;1239;57956;-84
2024/03/01 11:35:33;;;;;;;49.70;36.70;;;;;;;13.33;100.00;99454.08;183621;1240;46131;-83
2024/03/01 11:39:48;;;;;;;53.50;37.70;;;;;;;13.44;100.00;99444.17;183657;1238;46752;-83
2024/03/01 11:43:58;;;;;;;61.60;38.70;;;;;;;13.58;100.00;99443.23;183461;1235;46026;-84
2024/03/01 11:48:18;;;;;;;56.90;37.40;;;;;;;13.72;100.00;99439.65;183749;1240;45913;-83
2024/03/01 11:52:38;;;;;;;56.10;36.00;;;;;;;13.80;100.00;99436.01;184878;1235;58763;-84
2024/03/01 11:57:27;;;;;;;46.00;33.80;;;;;;;13.95;100.00;99431.98;182743;1235;45996;-85
2024/03/01 12:01:48;;;;;;;49.20;33.50;;;;;;;14.15;100.00;99434.10;181147;1245;46164;-83
2024/03/01 12:06:26;;;;;;;46.10;31.00;;;;;;;14.24;99.84;99424.02;181977;1244;45892;-83
2024/03/01 12:10:45;;;;;;;51.50;35.10;;;;;;;14.33;99.39;99421.42;182112;1245;46106;-83
2024/03/01 12:15:05;;;;;;;42.00;33.00;;;;;;;14.37;99.77;99413.59;181688;1247;59124;-85
2024/03/01 12:19:11;;;;;;;50.50;35.10;;;;;;;14.47;99.98;99410.16;182114;1247;45926;-84
2024/03/01 12:23:33;;;;;;;42.10;30.10;;;;;;;14.59;100.00;99405.88;181883;1247;46045;-84
2024/03/01 12:27:56;;;;;;;42.80;32.50;;;;;;;14.61;99.19;99403.66;181663;1244;46314;-85
2024/03/01 12:32:11;;;;;;;42.70;32.40;;;;;;;14.59;100.00;99412.80;182210;1247;46167;-84
2024/03/01 12:36:37;;;;;;;52.20;33.90;;;;;;;14.56;100.00;99418.10;182904;1235;59399;-82
2024/03/01 12:41:17;;;;;;;54.60;34.50;;;;;;;14.60;100.00;99414.30;183304;1238;46453;-85
2024/03/01 12:45:34;;;;;;;49.70;33.60;;;;;;;14.56;100.00;99413.41;183054;1235;44809;-84
2024/03/01 12:49:53;;;;;;;35.70;28.40;;;;;;;14.55;100.00;99412.82;183267;1235;46116;-84
2024/03/01 12:54:04;;;;;;;43.20;30.20;;;;;;;14.59;99.99;99410.09;183876;1235;46186;-81
2024/03/01 12:58:51;;;;;;;54.10;33.00;;;;;;;14.54;100.00;99400.35;183223;1235;59306;-86
2024/03/01 13:03:31;;;;;;;64.60;43.00;;;;;;;14.53;100.00;99398.48;183262;1235;45996;-84
2024/03/01 13:07:38;;;;;;;53.10;36.60;;;;;;;14.58;99.98;99392.70;182937;1235;46122;-84
2024/03/01 13:11:43;;;;;;;44.60;30.30;;;;;;;14.72;99.89;99387.13;182846;1235;44079;-83
2024/03/01 13:16:08;;;;;;;39.30;27.70;;;;;;;14.78;98.89;99388.80;182781;1238;46076;-82
2024/03/01 13:20:27;;;;;;;43.50;32.30;;;;;;;14.80;98.71;99400.13;183849;1238;57984;-82
2024/03/01 13:24:35;;;;;;;39.90;29.40;;;;;;;14.84;99.56;99406.05;182723;1239;46021;-81
2024/03/01 13:28:46;;;;;;;39.50;30.60;;;;;;;14.89;99.24;99404.43;183005;1238;46049;-82
2024/03/01 13:32:51;;;;;;;41.90;31.10;;;;;;;14.91;99.46;99399.90;183357;1235;45995;-84
2024/03/01 13:37:26;;;;;;;45.20;36.10;;;;;;;15.05;99.81;99398.21;182805;1235;45999;-85
2024/03/01 13:41:32;;;;;;;52.40;36.10;;;;;;;15.00;98.46;99395.73;183117;1234;59651;-85
2024/03/01 13:45:34;;;;;;;;;;;;;;;15.02;98.72;99395.45;182608;1238;46027;-85
2024/03/01 13:49:41;;;;;;;55.10;36.80;;;;;;;15.07;99.38;99399.50;183001;1235;43730;-84
2024/03/01 13:53:47;;;;;;;47.60;33.70;;;;;;;15.04;99.60;99400.96;182986;1235;46021;-83
2024/03/01 13:57:50;;;;;;;45.20;30.10;;;;;;;15.05;99.87;99394.59;182363;1238;46015;-83
2024/03/01 14:01:52;;;;;;;48.60;35.40;;;;;;;15.14;99.39;99381.13;182193;1235;58079;-85
2024/03/01 14:05:59;;;;;;;42.70;31.60;;;;;;;15.23;99.89;99375.52;182791;1235;46149;-85
2024/03/01 14:10:06;;;;;;;37.20;28.90;;;;;;;15.34;99.71;99373.27;183356;1235;45975;-83
2024/03/01 14:14:08;;;;;;;42.70;29.80;;;;;;;15.41;99.68;99373.35;182570;1236;46056;-85
2024/03/01 14:18:11;;;;;;;40.30;31.20;;;;;;;15.47;100.00;99373.03;182238;1236;46158;-84
2024/03/01 14:22:13;;;;;;;49.40;28.70;;;;;;;15.52;99.99;99375.23;182678;1234;58047;-86
2024/03/01 14:26:15;;;;;;;38.40;28.20;;;;;;;15.60;100.00;99375.02;182977;1235;46061;-85
2024/03/01 14:30:21;;;;;;;37.40;28.20;;;;;;;15.70;100.00;99372.96;182803;1234;45973;-80
2024/03/01 14:34:34;;;;;;;38.20;29.60;;;;;;;15.79;99.25;99374.99;182217;1238;46186;-80
2024/03/01 14:38:36;;;;;;;37.90;26.80;;;;;;;15.83;99.06;99373.58;183524;1238;46206;-81
2024/03/01 14:42:42;;;;;;;38.70;28.50;;;;;;;15.89;98.77;99372.00;181609;1234;57926;-80
2024/03/01 14:46:44;;;;;;;31.70;25.10;;;;;;;15.96;99.27;99370.76;182805;1235;45999;-81
2024/03/01 14:50:46;;;;;;;36.90;25.70;;;;;;;16.02;99.02;99367.91;184188;1235;45867;-81
2024/03/01 14:54:48;;;;;;;44.40;27.20;;;;;;;16.07;98.89;99365.59;184756;1235;43803;-80
2024/03/01 14:58:50;;;;;;;41.10;27.90;;;;;;;16.13;97.43;99359.86;184187;1238;44213;-81
2024/03/01 15:02:52;;;;;;;35.50;26.00;;;;;;;16.18;96.73;99352.12;182660;1238;59227;-81
2024/03/01 15:06:55;;;;;;;38.70;25.40;;;;;;;16.22;96.59;99354.40;185425;1234;44366;-81
2024/03/01 15:11:08;;;;;;;33.20;23.80;;;;;;;16.23;95.69;99350.89;184785;1235;46184;-81
2024/03/01 15:15:12;;;;;;;36.40;24.30;;;;;;;16.24;95.79;99351.46;183289;1235;46076;-80
2024/03/01 15:19:15;;;;;;;38.90;27.40;;;;;;;16.20;95.25;99355.15;183274;1235;46100;-79
2024/03/01 15:23:17;;;;;;;33.10;26.10;;;;;;;16.12;96.35;99356.25;184203;1238;59425;-79
2024/03/01 15:27:27;;;;;;;36.20;25.10;;;;;;;16.06;96.79;99356.23;184616;1235;44346;-80
2024/03/01 15:31:29;;;;;;;46.10;29.60;;;;;;;15.97;97.41;99357.39;182918;1235;46142;-81
2024/03/01 15:35:35;;;;;;;42.40;32.00;;;;;;;15.85;97.99;99355.44;183129;1234;46009;-81
2024/03/01 15:39:37;;;;;;;;;;;;;;;15.80;98.93;99356.09;183374;1235;46069;-81
2024/03/01 15:43:39;;;;;;;40.80;28.20;;;;;;;15.75;99.73;99357.11;183443;1234;58060;-80
2024/03/01 15:47:41;;;;;;;38.20;28.00;;;;;;;15.65;100.00;99356.55;182182;1238;45012;-80
2024/03/01 15:51:43;;;;;;;39.80;28.80;;;;;;;15.54;100.00;99354.98;181747;1235;45035;-80
2024/03/01 15:55:50;;;;;;;39.70;28.20;;;;;;;15.46;100.00;99357.80;182997;1238;46434;-81
2024/03/01 15:59:52;;;;;;;42.10;30.20;;;;;;;15.41;100.00;99358.39;182880;1234;45943;-80
2024/03/01 16:03:53;;;;;;;42.80;29.60;;;;;;;15.33;100.00;99356.44;183428;1235;57851;-80
2024/03/01 16:07:55;;;;;;;44.10;31.90;;;;;;;15.20;100.00;99358.61;184260;1235;45969;-80
2024/03/01 16:11:57;;;;;;;40.40;30.90;;;;;;;15.09;100.00;99355.44;185125;1235;44887;-80
2024/03/01 16:16:00;;;;;;;38.40;29.90;;;;;;;14.99;100.00;99356.88;185621;1238;45692;-80
2024/03/01 16:20:02;;;;;;;47.70;28.90;;;;;;;14.94;100.00;99350.98;184284;1235;44152;-80
2024/03/01 16:24:07;;;;;;;43.60;30.60;;;;;;;14.88;100.00;99356.87;183509;1235;56986;-79
2024/03/01 16:28:18;;;;;;;52.50;35.50;;;;;;;14.79;100.00;99360.81;183881;1235;46029;-81
2024/03/01 16:32:27;;;;;;;50.00;31.20;;;;;;;14.66;100.00;99360.25;183856;1235;44831;-80
2024/03/01 16:36:29;;;;;;;53.00;33.30;;;;;;;14.59;100.00;99360.65;183257;1235;45965;-81
2024/03/01 16:40:31;;;;;;;44.90;31.10;;;;;;;14.52;100.00;99366.07;183312;1235;45944;-81
2024/03/01 16:44:43;;;;;;;42.30;29.30;;;;;;;14.43;100.00;99368.41;182743;1238;58410;-80
2024/03/01 16:48:52;;;;;;;36.60;26.60;;;;;;;14.30;100.00;99373.17;183186;1235;46002;-82
2024/03/01 16:52:54;;;;;;;38.80;27.50;;;;;;;14.17;100.00;99376.67;182822;1237;44784;-81
2024/03/01 16:57:00;;;;;;;31.40;25.80;;;;;;;14.10;100.00;99379.85;182610;1235;46287;-80
2024/03/01 17:01:02;;;;;;;57.30;33.00;;;;;;;14.08;100.00;99380.13;184404;1235;46079;-80
2024/03/01 17:05:22;;;;;;;54.50;37.60;;;;;;;14.10;100.00;99383.44;183093;1236;58183;-81
2024/03/01 17:09:25;;;;;;;61.80;37.20;;;;;;;14.10;100.00;99381.13;184478;1235;46076;-87
2024/03/01 17:13:29;;;;;;;51.90;33.90;;;;;;;14.08;100.00;99382.27;185662;1234;43705;-87
2024/03/01 17:17:31;;;;;;;67.30;39.10;;;;;;;14.07;100.00;99381.56;183836;1238;46625;-85
2024/03/01 17:21:34;;;;;;;63.10;41.20;;;;;;;14.07;100.00;99387.12;182619;1236;46116;-84
2024/03/01 17:25:36;;;;;;;71.40;46.20;;;;;;;14.02;100.00;99389.83;182971;1235;59461;-85
2024/03/01 17:29:38;;;;;;;43.50;30.30;;;;;;;13.97;100.00;99394.27;184974;1235;46049;-86
2024/03/01 17:33:41;;;;;;;38.10;25.70;;;;;;;13.74;100.00;99400.87;183168;1238;46090;-85
2024/03/01 17:37:43;;;;;;;37.90;25.80;;;;;;;13.57;100.00;99404.67;183035;1235;46008;-83
2024/03/01 17:41:45;;;;;;;28.60;19.00;;;;;;;13.42;100.00;99409.27;183723;1238;46049;-85
2024/03/01 17:45:46;;;;;;;27.40;19.60;;;;;;;13.19;100.00;99413.02;183535;1238;57790;-85
2024/03/01 17:49:48;;;;;;;32.20;22.70;;;;;;;12.97;100.00;99422.62;182858;1236;46273;-87
2024/03/01 17:53:50;;;;;;;43.90;29.10;;;;;;;12.92;100.00;99430.09;183477;1234;45875;-85
2024/03/01 17:57:52;;;;;;;29.20;21.60;;;;;;;12.81;100.00;99438.12;182945;1235;45971;-86
2024/03/01 18:01:53;;;;;;;29.60;20.70;;;;;;;12.71;100.00;99439.48;183543;1235;46144;-87
2024/03/01 18:05:59;;;;;;;34.70;23.10;;;;;;;12.64;100.00;99444.33;183627;1235;57967;-86
2024/03/01 18:10:01;;;;;;;34.70;24.60;;;;;;;12.61;100.00;99449.42;183738;1236;46069;-85
2024/03/01 18:14:07;;;;;;;33.60;25.60;;;;;;;12.60;100.00;99451.18;184211;1235;45995;-86
2024/03/01 18:18:09;;;;;;;37.70;29.40;;;;;;;12.57;100.00;99456.50;184182;1236;46163;-86
2024/03/01 18:22:11;;;;;;;40.90;24.50;;;;;;;12.56;100.00;99466.30;183575;1234;45996;-85
2024/03/01 18:26:12;;;;;;;34.70;25.40;;;;;;;12.52;100.00;99467.27;183096;1235;60670;-87
2024/03/01 18:30:15;;;;;;;34.90;22.80;;;;;;;12.45;100.00;99470.98;184514;1235;44148;-88